sensor_id;sensor_type;location;lat;lon;timestamp;temperature;humidity
6654;DHT22;3363;50.942;7.034;2023-02-02T00:01:45;7.50;96.40
6654;DHT22;3363;50.942;7.034;2023-02-02T00:04:14;7.50;95.40
6654;DHT22;3363;50.942;7.034;2023-02-02T00:06:41;7.50;94.60
6654;DHT22;3363;50.942;7.034;2023-02-02T00:09:08;7.50;95.30
6654;DHT22;3363;50.942;7.034;2023-02-02T00:11:34;7.40;95.40
6654;DHT22;3363;50.942;7.034;2023-02-02T00:14:01;7.40;95.20
6654;DHT22;3363;50.942;7.034;2023-02-02T00:16:41;7.40;95.60
6654;DHT22;3363;50.942;7.034;2023-02-02T00:19:10;7.40;96.20
6654;DHT22;3363;50.942;7.034;2023-02-02T00:21:37;7.40;95.30
6654;DHT22;3363;50.942;7.034;2023-02-02T00:24:04;7.40;96.70
6654;DHT22;3363;50.942;7.034;2023-02-02T00:26:31;7.40;95.40
6654;DHT22;3363;50.942;7.034;2023-02-02T00:28:58;7.40;96.00
6654;DHT22;3363;50.942;7.034;2023-02-02T00:31:25;7.50;95.90
6654;DHT22;3363;50.942;7.034;2023-02-02T00:33:51;7.40;95.00
6654;DHT22;3363;50.942;7.034;2023-02-02T00:36:20;7.40;96.00
6654;DHT22;3363;50.942;7.034;2023-02-02T00:38:47;7.40;95.50
6654;DHT22;3363;50.942;7.034;2023-02-02T00:41:14;7.40;96.00
6654;DHT22;3363;50.942;7.034;2023-02-02T00:43:40;7.50;96.10
6654;DHT22;3363;50.942;7.034;2023-02-02T00:46:08;7.50;95.60
6654;DHT22;3363;50.942;7.034;2023-02-02T00:48:34;7.50;95.60
6654;DHT22;3363;50.942;7.034;2023-02-02T00:51:01;7.50;95.70
6654;DHT22;3363;50.942;7.034;2023-02-02T00:53:28;7.50;95.30
6654;DHT22;3363;50.942;7.034;2023-02-02T00:55:55;7.50;95.00
6654;DHT22;3363;50.942;7.034;2023-02-02T00:58:22;7.40;95.60
6654;DHT22;3363;50.942;7.034;2023-02-02T01:03:49;7.40;95.90
6654;DHT22;3363;50.942;7.034;2023-02-02T01:06:16;7.40;95.30
6654;DHT22;3363;50.942;7.034;2023-02-02T01:08:44;7.50;95.60
6654;DHT22;3363;50.942;7.034;2023-02-02T01:11:11;7.50;95.20
6654;DHT22;3363;50.942;7.034;2023-02-02T01:13:37;7.50;95.80
6654;DHT22;3363;50.942;7.034;2023-02-02T01:16:04;7.50;95.70
6654;DHT22;3363;50.942;7.034;2023-02-02T01:18:31;7.50;95.40
6654;DHT22;3363;50.942;7.034;2023-02-02T01:20:58;7.50;96.10
6654;DHT22;3363;50.942;7.034;2023-02-02T01:23:25;7.50;95.90
6654;DHT22;3363;50.942;7.034;2023-02-02T01:25:53;7.50;96.20
6654;DHT22;3363;50.942;7.034;2023-02-02T01:28:20;7.50;95.80
6654;DHT22;3363;50.942;7.034;2023-02-02T01:30:47;7.50;96.30
6654;DHT22;3363;50.942;7.034;2023-02-02T01:33:14;7.50;95.90
6654;DHT22;3363;50.942;7.034;2023-02-02T01:35:43;7.50;95.90
6654;DHT22;3363;50.942;7.034;2023-02-02T01:38:10;7.50;95.40
6654;DHT22;3363;50.942;7.034;2023-02-02T01:40:42;7.50;96.20
6654;DHT22;3363;50.942;7.034;2023-02-02T01:43:11;7.50;96.40
6654;DHT22;3363;50.942;7.034;2023-02-02T01:45:46;7.50;99.20
6654;DHT22;3363;50.942;7.034;2023-02-02T01:48:13;7.50;99.90
6654;DHT22;3363;50.942;7.034;2023-02-02T01:50:40;7.50;99.90
6654;DHT22;3363;50.942;7.034;2023-02-02T01:53:07;7.50;99.90
6654;DHT22;3363;50.942;7.034;2023-02-02T01:55:34;7.40;99.90
6654;DHT22;3363;50.942;7.034;2023-02-02T01:58:04;7.40;99.90
6654;DHT22;3363;50.942;7.034;2023-02-02T02:00:32;7.40;99.90
6654;DHT22;3363;50.942;7.034;2023-02-02T02:03:03;7.40;99.90
6654;DHT22;3363;50.942;7.034;2023-02-02T02:05:31;7.40;99.90
6654;DHT22;3363;50.942;7.034;2023-02-02T02:08:01;7.40;99.90
6654;DHT22;3363;50.942;7.034;2023-02-02T02:10:29;7.40;99.90
6654;DHT22;3363;50.942;7.034;2023-02-02T02:12:56;7.40;99.90
6654;DHT22;3363;50.942;7.034;2023-02-02T02:15:23;7.40;99.90
6654;DHT22;3363;50.942;7.034;2023-02-02T02:18:11;7.40;99.90
6654;DHT22;3363;50.942;7.034;2023-02-02T02:20:43;7.40;99.90
6654;DHT22;3363;50.942;7.034;2023-02-02T02:23:39;7.30;99.90
6654;DHT22;3363;50.942;7.034;2023-02-02T02:29:18;7.40;99.90
6654;DHT22;3363;50.942;7.034;2023-02-02T02:31:59;7.40;99.90
6654;DHT22;3363;50.942;7.034;2023-02-02T02:34:32;7.30;99.90
6654;DHT22;3363;50.942;7.034;2023-02-02T02:37:03;7.30;99.90
6654;DHT22;3363;50.942;7.034;2023-02-02T02:39:33;7.30;99.90
6654;DHT22;3363;50.942;7.034;2023-02-02T02:42:01;7.30;99.90
6654;DHT22;3363;50.942;7.034;2023-02-02T02:44:30;7.30;99.90
6654;DHT22;3363;50.942;7.034;2023-02-02T02:46:57;7.30;99.90
6654;DHT22;3363;50.942;7.034;2023-02-02T02:49:25;7.30;99.90
6654;DHT22;3363;50.942;7.034;2023-02-02T02:51:52;7.30;99.90
6654;DHT22;3363;50.942;7.034;2023-02-02T02:54:20;7.40;99.90
6654;DHT22;3363;50.942;7.034;2023-02-02T02:56:56;7.40;99.90
6654;DHT22;3363;50.942;7.034;2023-02-02T02:59:28;7.40;99.90
6654;DHT22;3363;50.942;7.034;2023-02-02T03:02:01;7.40;99.90
6654;DHT22;3363;50.942;7.034;2023-02-02T03:04:34;7.40;99.90
6654;DHT22;3363;50.942;7.034;2023-02-02T03:07:04;7.30;99.90
6654;DHT22;3363;50.942;7.034;2023-02-02T03:09:33;7.40;99.90
6654;DHT22;3363;50.942;7.034;2023-02-02T03:12:01;7.40;99.90
6654;DHT22;3363;50.942;7.034;2023-02-02T03:14:28;7.40;99.90
6654;DHT22;3363;50.942;7.034;2023-02-02T03:16:59;7.40;99.90
6654;DHT22;3363;50.942;7.034;2023-02-02T03:19:26;7.40;99.90
6654;DHT22;3363;50.942;7.034;2023-02-02T03:21:54;7.40;99.90
6654;DHT22;3363;50.942;7.034;2023-02-02T03:24:20;7.40;99.90
6654;DHT22;3363;50.942;7.034;2023-02-02T03:26:47;7.40;99.90
6654;DHT22;3363;50.942;7.034;2023-02-02T03:29:14;7.40;99.90
6654;DHT22;3363;50.942;7.034;2023-02-02T03:31:41;7.40;99.90
6654;DHT22;3363;50.942;7.034;2023-02-02T03:34:08;7.40;99.90
6654;DHT22;3363;50.942;7.034;2023-02-02T03:36:35;7.30;99.90
6654;DHT22;3363;50.942;7.034;2023-02-02T03:39:03;7.40;99.90
6654;DHT22;3363;50.942;7.034;2023-02-02T03:41:29;7.40;99.90
6654;DHT22;3363;50.942;7.034;2023-02-02T03:43:56;7.40;99.90
6654;DHT22;3363;50.942;7.034;2023-02-02T03:46:23;7.40;99.90
6654;DHT22;3363;50.942;7.034;2023-02-02T03:48:49;7.40;99.90
6654;DHT22;3363;50.942;7.034;2023-02-02T03:51:16;7.30;99.90
6654;DHT22;3363;50.942;7.034;2023-02-02T03:53:43;7.30;99.90
6654;DHT22;3363;50.942;7.034;2023-02-02T03:56:13;7.30;99.90
6654;DHT22;3363;50.942;7.034;2023-02-02T03:58:39;7.30;99.90
6654;DHT22;3363;50.942;7.034;2023-02-02T04:01:07;7.30;99.90
6654;DHT22;3363;50.942;7.034;2023-02-02T04:03:33;7.30;99.90
6654;DHT22;3363;50.942;7.034;2023-02-02T04:06:00;7.30;99.90
6654;DHT22;3363;50.942;7.034;2023-02-02T04:08:27;7.30;99.90
6654;DHT22;3363;50.942;7.034;2023-02-02T04:10:54;7.30;99.90
6654;DHT22;3363;50.942;7.034;2023-02-02T04:13:22;7.30;99.90
6654;DHT22;3363;50.942;7.034;2023-02-02T04:15:54;7.30;99.90
6654;DHT22;3363;50.942;7.034;2023-02-02T04:18:21;7.30;99.90
6654;DHT22;3363;50.942;7.034;2023-02-02T04:20:48;7.30;99.90
6654;DHT22;3363;50.942;7.034;2023-02-02T04:23:14;7.30;99.90
6654;DHT22;3363;50.942;7.034;2023-02-02T04:25:47;7.30;99.90
6654;DHT22;3363;50.942;7.034;2023-02-02T04:28:14;7.30;99.90
6654;DHT22;3363;50.942;7.034;2023-02-02T04:30:42;7.30;99.90
6654;DHT22;3363;50.942;7.034;2023-02-02T04:33:08;7.30;99.90
6654;DHT22;3363;50.942;7.034;2023-02-02T04:35:35;7.30;99.90
6654;DHT22;3363;50.942;7.034;2023-02-02T04:38:02;7.20;99.90
6654;DHT22;3363;50.942;7.034;2023-02-02T04:40:28;7.20;99.90
6654;DHT22;3363;50.942;7.034;2023-02-02T04:42:56;7.30;99.90
6654;DHT22;3363;50.942;7.034;2023-02-02T04:45:22;7.30;99.90
6654;DHT22;3363;50.942;7.034;2023-02-02T04:47:50;7.20;99.90
6654;DHT22;3363;50.942;7.034;2023-02-02T04:50:17;7.20;99.90
6654;DHT22;3363;50.942;7.034;2023-02-02T04:52:44;7.20;99.90
6654;DHT22;3363;50.942;7.034;2023-02-02T04:55:10;7.20;99.90
6654;DHT22;3363;50.942;7.034;2023-02-02T04:57:37;7.30;99.90
6654;DHT22;3363;50.942;7.034;2023-02-02T05:00:04;7.20;99.90
6654;DHT22;3363;50.942;7.034;2023-02-02T05:02:33;7.20;99.90
6654;DHT22;3363;50.942;7.034;2023-02-02T05:05:02;7.20;99.90
6654;DHT22;3363;50.942;7.034;2023-02-02T05:07:28;7.20;99.90
6654;DHT22;3363;50.942;7.034;2023-02-02T05:09:55;7.30;99.90
6654;DHT22;3363;50.942;7.034;2023-02-02T05:12:22;7.20;99.90
6654;DHT22;3363;50.942;7.034;2023-02-02T05:14:49;7.20;99.90
6654;DHT22;3363;50.942;7.034;2023-02-02T05:17:15;7.20;99.90
6654;DHT22;3363;50.942;7.034;2023-02-02T05:19:42;7.20;99.90
6654;DHT22;3363;50.942;7.034;2023-02-02T05:22:10;7.20;99.90
6654;DHT22;3363;50.942;7.034;2023-02-02T05:24:36;7.20;99.90
6654;DHT22;3363;50.942;7.034;2023-02-02T05:27:03;7.20;99.90
6654;DHT22;3363;50.942;7.034;2023-02-02T05:29:30;7.20;99.90
6654;DHT22;3363;50.942;7.034;2023-02-02T05:31:56;7.20;99.90
6654;DHT22;3363;50.942;7.034;2023-02-02T05:34:23;7.20;99.90
6654;DHT22;3363;50.942;7.034;2023-02-02T05:36:50;7.20;99.90
6654;DHT22;3363;50.942;7.034;2023-02-02T05:39:18;7.20;99.90
6654;DHT22;3363;50.942;7.034;2023-02-02T05:41:45;7.20;99.90
6654;DHT22;3363;50.942;7.034;2023-02-02T05:44:12;7.20;99.90
6654;DHT22;3363;50.942;7.034;2023-02-02T05:46:39;7.20;99.90
6654;DHT22;3363;50.942;7.034;2023-02-02T05:49:05;7.20;99.90
6654;DHT22;3363;50.942;7.034;2023-02-02T05:51:33;7.20;99.90
6654;DHT22;3363;50.942;7.034;2023-02-02T05:54:02;7.20;99.90
6654;DHT22;3363;50.942;7.034;2023-02-02T05:56:30;7.20;99.90
6654;DHT22;3363;50.942;7.034;2023-02-02T05:58:57;7.20;99.90
6654;DHT22;3363;50.942;7.034;2023-02-02T06:01:24;7.20;99.90
6654;DHT22;3363;50.942;7.034;2023-02-02T06:03:51;7.20;99.90
6654;DHT22;3363;50.942;7.034;2023-02-02T06:06:17;7.20;99.90
6654;DHT22;3363;50.942;7.034;2023-02-02T06:08:44;7.20;99.90
6654;DHT22;3363;50.942;7.034;2023-02-02T06:11:11;7.20;99.90
6654;DHT22;3363;50.942;7.034;2023-02-02T06:13:39;7.30;99.90
6654;DHT22;3363;50.942;7.034;2023-02-02T06:16:06;7.20;99.90
6654;DHT22;3363;50.942;7.034;2023-02-02T06:18:33;7.20;99.90
6654;DHT22;3363;50.942;7.034;2023-02-02T06:21:00;7.20;99.90
6654;DHT22;3363;50.942;7.034;2023-02-02T06:23:27;7.20;99.90
6654;DHT22;3363;50.942;7.034;2023-02-02T06:25:54;7.20;99.90
6654;DHT22;3363;50.942;7.034;2023-02-02T06:28:20;7.20;99.90
6654;DHT22;3363;50.942;7.034;2023-02-02T06:30:48;7.20;99.90
6654;DHT22;3363;50.942;7.034;2023-02-02T06:33:15;7.20;99.90
6654;DHT22;3363;50.942;7.034;2023-02-02T06:35:41;7.20;99.90
6654;DHT22;3363;50.942;7.034;2023-02-02T06:38:08;7.20;99.90
6654;DHT22;3363;50.942;7.034;2023-02-02T06:40:35;7.30;99.90
6654;DHT22;3363;50.942;7.034;2023-02-02T06:43:02;7.30;99.90
6654;DHT22;3363;50.942;7.034;2023-02-02T06:45:29;7.30;99.90
6654;DHT22;3363;50.942;7.034;2023-02-02T06:47:58;7.30;99.90
6654;DHT22;3363;50.942;7.034;2023-02-02T06:50:27;7.30;99.90
6654;DHT22;3363;50.942;7.034;2023-02-02T06:52:54;7.30;99.90
6654;DHT22;3363;50.942;7.034;2023-02-02T06:55:21;7.30;99.90
6654;DHT22;3363;50.942;7.034;2023-02-02T06:57:47;7.30;99.90
6654;DHT22;3363;50.942;7.034;2023-02-02T07:00:14;7.30;99.90
6654;DHT22;3363;50.942;7.034;2023-02-02T07:02:43;7.30;99.90
6654;DHT22;3363;50.942;7.034;2023-02-02T07:05:11;7.30;99.90
6654;DHT22;3363;50.942;7.034;2023-02-02T07:07:38;7.30;99.90
6654;DHT22;3363;50.942;7.034;2023-02-02T07:10:05;7.30;99.90
6654;DHT22;3363;50.942;7.034;2023-02-02T07:12:32;7.30;99.90
6654;DHT22;3363;50.942;7.034;2023-02-02T07:14:58;7.30;99.90
6654;DHT22;3363;50.942;7.034;2023-02-02T07:17:25;7.30;99.90
6654;DHT22;3363;50.942;7.034;2023-02-02T07:19:51;7.30;99.90
6654;DHT22;3363;50.942;7.034;2023-02-02T07:22:19;7.30;99.90
6654;DHT22;3363;50.942;7.034;2023-02-02T07:24:46;7.30;99.90
6654;DHT22;3363;50.942;7.034;2023-02-02T07:27:13;7.30;99.90
6654;DHT22;3363;50.942;7.034;2023-02-02T07:29:39;7.30;99.90
6654;DHT22;3363;50.942;7.034;2023-02-02T07:32:06;7.30;99.90
6654;DHT22;3363;50.942;7.034;2023-02-02T07:34:35;7.30;99.90
6654;DHT22;3363;50.942;7.034;2023-02-02T07:37:02;7.30;99.90
6654;DHT22;3363;50.942;7.034;2023-02-02T07:39:30;7.30;99.90
6654;DHT22;3363;50.942;7.034;2023-02-02T07:41:56;7.30;99.90
6654;DHT22;3363;50.942;7.034;2023-02-02T07:44:23;7.30;99.90
6654;DHT22;3363;50.942;7.034;2023-02-02T07:46:50;7.30;99.90
6654;DHT22;3363;50.942;7.034;2023-02-02T07:49:16;7.40;99.90
6654;DHT22;3363;50.942;7.034;2023-02-02T07:51:44;7.40;99.90
6654;DHT22;3363;50.942;7.034;2023-02-02T07:54:13;7.30;99.90
6654;DHT22;3363;50.942;7.034;2023-02-02T07:56:41;7.40;99.90
6654;DHT22;3363;50.942;7.034;2023-02-02T07:59:08;7.40;99.90
6654;DHT22;3363;50.942;7.034;2023-02-02T08:01:35;7.40;99.90
6654;DHT22;3363;50.942;7.034;2023-02-02T08:04:02;7.40;99.90
6654;DHT22;3363;50.942;7.034;2023-02-02T08:06:29;7.40;99.90
6654;DHT22;3363;50.942;7.034;2023-02-02T08:08:56;7.40;99.90
6654;DHT22;3363;50.942;7.034;2023-02-02T08:11:23;7.40;99.90
6654;DHT22;3363;50.942;7.034;2023-02-02T08:13:53;7.30;99.90
6654;DHT22;3363;50.942;7.034;2023-02-02T08:16:20;7.40;99.90
6654;DHT22;3363;50.942;7.034;2023-02-02T08:18:47;7.40;99.90
6654;DHT22;3363;50.942;7.034;2023-02-02T08:21:14;7.40;99.90
6654;DHT22;3363;50.942;7.034;2023-02-02T08:23:41;7.30;99.90
6654;DHT22;3363;50.942;7.034;2023-02-02T08:26:08;7.30;99.90
6654;DHT22;3363;50.942;7.034;2023-02-02T08:28:35;7.40;99.90
6654;DHT22;3363;50.942;7.034;2023-02-02T08:31:04;7.40;99.90
6654;DHT22;3363;50.942;7.034;2023-02-02T08:33:31;7.30;99.90
6654;DHT22;3363;50.942;7.034;2023-02-02T08:35:58;7.30;99.90
6654;DHT22;3363;50.942;7.034;2023-02-02T08:38:24;7.30;99.90
6654;DHT22;3363;50.942;7.034;2023-02-02T08:40:51;7.30;99.90
6654;DHT22;3363;50.942;7.034;2023-02-02T08:43:18;7.30;99.90
6654;DHT22;3363;50.942;7.034;2023-02-02T08:45:44;7.30;99.90
6654;DHT22;3363;50.942;7.034;2023-02-02T08:48:13;7.30;99.90
6654;DHT22;3363;50.942;7.034;2023-02-02T08:50:41;7.30;99.90
6654;DHT22;3363;50.942;7.034;2023-02-02T08:53:08;7.30;99.90
6654;DHT22;3363;50.942;7.034;2023-02-02T08:55:34;7.30;99.90
6654;DHT22;3363;50.942;7.034;2023-02-02T08:58:01;7.30;99.90
6654;DHT22;3363;50.942;7.034;2023-02-02T09:00:27;7.30;99.90
6654;DHT22;3363;50.942;7.034;2023-02-02T09:02:54;7.40;99.90
6654;DHT22;3363;50.942;7.034;2023-02-02T09:05:22;7.30;99.90
6654;DHT22;3363;50.942;7.034;2023-02-02T09:07:49;7.30;99.90
6654;DHT22;3363;50.942;7.034;2023-02-02T09:10:15;7.30;99.90
6654;DHT22;3363;50.942;7.034;2023-02-02T09:12:42;7.30;99.90
6654;DHT22;3363;50.942;7.034;2023-02-02T09:15:09;7.30;99.90
6654;DHT22;3363;50.942;7.034;2023-02-02T09:17:36;7.30;99.90
6654;DHT22;3363;50.942;7.034;2023-02-02T09:20:03;7.30;99.90
6654;DHT22;3363;50.942;7.034;2023-02-02T09:22:31;7.30;99.90
6654;DHT22;3363;50.942;7.034;2023-02-02T09:24:58;7.40;99.90
6654;DHT22;3363;50.942;7.034;2023-02-02T09:27:24;7.40;99.90
6654;DHT22;3363;50.942;7.034;2023-02-02T09:29:51;7.40;99.90
6654;DHT22;3363;50.942;7.034;2023-02-02T09:32:18;7.50;99.90
6654;DHT22;3363;50.942;7.034;2023-02-02T09:34:44;7.40;99.90
6654;DHT22;3363;50.942;7.034;2023-02-02T09:37:11;7.40;99.90
6654;DHT22;3363;50.942;7.034;2023-02-02T09:39:39;7.40;99.90
6654;DHT22;3363;50.942;7.034;2023-02-02T09:42:08;7.50;99.90
6654;DHT22;3363;50.942;7.034;2023-02-02T09:44:46;7.50;99.90
6654;DHT22;3363;50.942;7.034;2023-02-02T09:47:16;7.50;99.90
6654;DHT22;3363;50.942;7.034;2023-02-02T09:49:47;7.50;99.90
6654;DHT22;3363;50.942;7.034;2023-02-02T09:52:16;7.50;99.90
6654;DHT22;3363;50.942;7.034;2023-02-02T09:54:48;7.40;99.90
6654;DHT22;3363;50.942;7.034;2023-02-02T09:57:15;7.50;99.90
6654;DHT22;3363;50.942;7.034;2023-02-02T09:59:43;7.50;99.90
6654;DHT22;3363;50.942;7.034;2023-02-02T10:02:12;7.50;99.90
6654;DHT22;3363;50.942;7.034;2023-02-02T10:04:41;7.50;99.90
6654;DHT22;3363;50.942;7.034;2023-02-02T10:07:11;7.50;99.90
6654;DHT22;3363;50.942;7.034;2023-02-02T10:09:39;7.50;99.90
6654;DHT22;3363;50.942;7.034;2023-02-02T10:12:14;7.50;99.90
6654;DHT22;3363;50.942;7.034;2023-02-02T10:14:45;7.40;99.90
6654;DHT22;3363;50.942;7.034;2023-02-02T10:17:22;7.50;99.90
6654;DHT22;3363;50.942;7.034;2023-02-02T10:19:51;7.50;99.90
6654;DHT22;3363;50.942;7.034;2023-02-02T10:22:21;7.50;99.90
6654;DHT22;3363;50.942;7.034;2023-02-02T10:24:48;7.50;99.90
6654;DHT22;3363;50.942;7.034;2023-02-02T10:27:19;7.50;99.90
6654;DHT22;3363;50.942;7.034;2023-02-02T10:29:52;7.50;99.90
6654;DHT22;3363;50.942;7.034;2023-02-02T10:32:22;7.50;99.90
6654;DHT22;3363;50.942;7.034;2023-02-02T10:34:59;7.50;99.90
6654;DHT22;3363;50.942;7.034;2023-02-02T10:37:29;7.50;99.90
6654;DHT22;3363;50.942;7.034;2023-02-02T10:40:04;7.50;99.90
6654;DHT22;3363;50.942;7.034;2023-02-02T10:42:40;7.50;99.90
6654;DHT22;3363;50.942;7.034;2023-02-02T10:45:10;7.50;99.90
6654;DHT22;3363;50.942;7.034;2023-02-02T10:47:39;7.50;99.90
6654;DHT22;3363;50.942;7.034;2023-02-02T10:50:13;7.50;99.90
6654;DHT22;3363;50.942;7.034;2023-02-02T10:52:40;7.60;99.90
6654;DHT22;3363;50.942;7.034;2023-02-02T10:55:13;7.50;99.90
6654;DHT22;3363;50.942;7.034;2023-02-02T10:57:47;7.50;99.90
6654;DHT22;3363;50.942;7.034;2023-02-02T11:00:18;7.60;99.90
6654;DHT22;3363;50.942;7.034;2023-02-02T11:02:46;7.60;99.90
6654;DHT22;3363;50.942;7.034;2023-02-02T11:05:18;7.60;99.90
6654;DHT22;3363;50.942;7.034;2023-02-02T11:08:07;7.60;99.90
6654;DHT22;3363;50.942;7.034;2023-02-02T11:10:36;7.60;99.90
6654;DHT22;3363;50.942;7.034;2023-02-02T11:13:04;7.60;99.90
6654;DHT22;3363;50.942;7.034;2023-02-02T11:15:31;7.60;99.90
6654;DHT22;3363;50.942;7.034;2023-02-02T11:18:04;7.70;99.90
6654;DHT22;3363;50.942;7.034;2023-02-02T11:20:38;7.70;99.90
6654;DHT22;3363;50.942;7.034;2023-02-02T11:23:05;7.70;99.90
6654;DHT22;3363;50.942;7.034;2023-02-02T11:25:32;7.70;99.90
6654;DHT22;3363;50.942;7.034;2023-02-02T11:28:00;7.70;99.90
6654;DHT22;3363;50.942;7.034;2023-02-02T11:30:30;7.70;99.90
6654;DHT22;3363;50.942;7.034;2023-02-02T11:32:58;7.70;99.90
6654;DHT22;3363;50.942;7.034;2023-02-02T11:35:26;7.70;99.90
6654;DHT22;3363;50.942;7.034;2023-02-02T11:37:55;7.70;99.90
6654;DHT22;3363;50.942;7.034;2023-02-02T11:40:29;7.80;99.90
6654;DHT22;3363;50.942;7.034;2023-02-02T11:42:57;7.80;99.90
6654;DHT22;3363;50.942;7.034;2023-02-02T11:45:26;7.80;99.90
6654;DHT22;3363;50.942;7.034;2023-02-02T11:47:58;7.70;99.90
6654;DHT22;3363;50.942;7.034;2023-02-02T11:50:26;7.80;99.90
6654;DHT22;3363;50.942;7.034;2023-02-02T11:52:53;7.80;99.90
6654;DHT22;3363;50.942;7.034;2023-02-02T11:55:21;7.80;99.90
6654;DHT22;3363;50.942;7.034;2023-02-02T11:58:09;7.80;99.90
6654;DHT22;3363;50.942;7.034;2023-02-02T12:00:41;7.80;99.90
6654;DHT22;3363;50.942;7.034;2023-02-02T12:03:20;7.80;99.90
6654;DHT22;3363;50.942;7.034;2023-02-02T12:05:48;7.80;99.90
6654;DHT22;3363;50.942;7.034;2023-02-02T12:08:14;7.90;99.90
6654;DHT22;3363;50.942;7.034;2023-02-02T12:10:42;7.90;99.90
6654;DHT22;3363;50.942;7.034;2023-02-02T12:13:12;7.90;99.90
6654;DHT22;3363;50.942;7.034;2023-02-02T12:15:45;7.90;99.90
6654;DHT22;3363;50.942;7.034;2023-02-02T12:18:16;8.00;99.90
6654;DHT22;3363;50.942;7.034;2023-02-02T12:20:47;8.00;99.90
6654;DHT22;3363;50.942;7.034;2023-02-02T12:23:24;8.00;99.90
6654;DHT22;3363;50.942;7.034;2023-02-02T12:26:08;8.00;99.90
6654;DHT22;3363;50.942;7.034;2023-02-02T12:28:46;8.00;99.90
6654;DHT22;3363;50.942;7.034;2023-02-02T12:31:17;8.10;99.90
6654;DHT22;3363;50.942;7.034;2023-02-02T12:33:49;8.10;99.90
6654;DHT22;3363;50.942;7.034;2023-02-02T12:36:24;8.10;99.90
6654;DHT22;3363;50.942;7.034;2023-02-02T12:39:01;8.10;99.90
6654;DHT22;3363;50.942;7.034;2023-02-02T12:41:34;8.00;99.90
6654;DHT22;3363;50.942;7.034;2023-02-02T12:44:06;8.00;99.90
6654;DHT22;3363;50.942;7.034;2023-02-02T12:49:26;8.10;99.90
6654;DHT22;3363;50.942;7.034;2023-02-02T12:52:07;8.10;99.90
6654;DHT22;3363;50.942;7.034;2023-02-02T12:54:43;8.10;99.90
6654;DHT22;3363;50.942;7.034;2023-02-02T12:57:14;8.20;99.90
6654;DHT22;3363;50.942;7.034;2023-02-02T12:59:56;8.20;99.90
6654;DHT22;3363;50.942;7.034;2023-02-02T13:02:28;8.30;99.90
6654;DHT22;3363;50.942;7.034;2023-02-02T13:05:02;8.30;99.90
6654;DHT22;3363;50.942;7.034;2023-02-02T13:07:38;8.30;99.90
6654;DHT22;3363;50.942;7.034;2023-02-02T13:10:08;8.30;99.90
6654;DHT22;3363;50.942;7.034;2023-02-02T13:12:38;8.30;99.90
6654;DHT22;3363;50.942;7.034;2023-02-02T13:15:07;8.30;99.90
6654;DHT22;3363;50.942;7.034;2023-02-02T13:17:37;8.30;99.90
6654;DHT22;3363;50.942;7.034;2023-02-02T13:20:05;8.30;99.90
6654;DHT22;3363;50.942;7.034;2023-02-02T13:22:33;8.30;99.90
6654;DHT22;3363;50.942;7.034;2023-02-02T13:25:04;8.40;99.90
6654;DHT22;3363;50.942;7.034;2023-02-02T13:27:32;8.40;99.90
6654;DHT22;3363;50.942;7.034;2023-02-02T13:30:00;8.30;99.90
6654;DHT22;3363;50.942;7.034;2023-02-02T13:32:29;8.40;99.90
6654;DHT22;3363;50.942;7.034;2023-02-02T13:34:57;8.40;99.90
6654;DHT22;3363;50.942;7.034;2023-02-02T13:37:27;8.30;99.90
6654;DHT22;3363;50.942;7.034;2023-02-02T13:39:58;8.40;99.90
6654;DHT22;3363;50.942;7.034;2023-02-02T13:42:28;8.30;99.90
6654;DHT22;3363;50.942;7.034;2023-02-02T13:44:58;8.30;99.90
6654;DHT22;3363;50.942;7.034;2023-02-02T13:47:28;8.30;99.90
6654;DHT22;3363;50.942;7.034;2023-02-02T13:49:57;8.30;99.90
6654;DHT22;3363;50.942;7.034;2023-02-02T13:52:45;8.40;99.90
6654;DHT22;3363;50.942;7.034;2023-02-02T13:55:19;8.30;99.90
6654;DHT22;3363;50.942;7.034;2023-02-02T14:00:34;8.40;99.90
6654;DHT22;3363;50.942;7.034;2023-02-02T14:03:04;8.40;99.90
6654;DHT22;3363;50.942;7.034;2023-02-02T14:05:32;8.30;99.90
6654;DHT22;3363;50.942;7.034;2023-02-02T14:08:00;8.50;98.70
6654;DHT22;3363;50.942;7.034;2023-02-02T14:10:29;8.60;96.80
6654;DHT22;3363;50.942;7.034;2023-02-02T14:13:04;8.60;96.50
6654;DHT22;3363;50.942;7.034;2023-02-02T14:15:39;8.60;96.40
6654;DHT22;3363;50.942;7.034;2023-02-02T14:18:06;8.70;95.60
6654;DHT22;3363;50.942;7.034;2023-02-02T14:20:44;8.60;96.50
6654;DHT22;3363;50.942;7.034;2023-02-02T14:26:08;8.60;96.30
6654;DHT22;3363;50.942;7.034;2023-02-02T14:28:38;8.50;97.60
6654;DHT22;3363;50.942;7.034;2023-02-02T14:31:17;8.50;97.30
6654;DHT22;3363;50.942;7.034;2023-02-02T14:33:50;8.60;96.40
6654;DHT22;3363;50.942;7.034;2023-02-02T14:36:17;8.40;96.90
6654;DHT22;3363;50.942;7.034;2023-02-02T14:41:48;8.40;97.80
6654;DHT22;3363;50.942;7.034;2023-02-02T14:44:37;8.50;97.00
6654;DHT22;3363;50.942;7.034;2023-02-02T14:50:20;8.40;97.50
6654;DHT22;3363;50.942;7.034;2023-02-02T14:52:54;8.50;96.70
6654;DHT22;3363;50.942;7.034;2023-02-02T14:55:21;8.50;96.60
6654;DHT22;3363;50.942;7.034;2023-02-02T14:57:52;8.50;96.80
6654;DHT22;3363;50.942;7.034;2023-02-02T15:00:19;8.40;97.40
6654;DHT22;3363;50.942;7.034;2023-02-02T15:02:47;8.50;97.30
6654;DHT22;3363;50.942;7.034;2023-02-02T15:05:41;8.40;98.30
6654;DHT22;3363;50.942;7.034;2023-02-02T15:08:19;8.50;98.10
6654;DHT22;3363;50.942;7.034;2023-02-02T15:13:49;8.40;99.30
6654;DHT22;3363;50.942;7.034;2023-02-02T15:16:18;8.40;98.90
6654;DHT22;3363;50.942;7.034;2023-02-02T15:18:48;8.30;99.10
6654;DHT22;3363;50.942;7.034;2023-02-02T15:21:23;8.40;99.90
6654;DHT22;3363;50.942;7.034;2023-02-02T15:23:50;8.30;99.80
6654;DHT22;3363;50.942;7.034;2023-02-02T15:26:18;8.30;99.90
6654;DHT22;3363;50.942;7.034;2023-02-02T15:28:50;8.30;99.90
6654;DHT22;3363;50.942;7.034;2023-02-02T15:31:20;8.30;99.90
6654;DHT22;3363;50.942;7.034;2023-02-02T15:33:49;8.40;99.90
6654;DHT22;3363;50.942;7.034;2023-02-02T15:36:17;8.40;99.90
6654;DHT22;3363;50.942;7.034;2023-02-02T15:38:46;8.50;99.90
6654;DHT22;3363;50.942;7.034;2023-02-02T15:41:16;8.60;99.70
6654;DHT22;3363;50.942;7.034;2023-02-02T15:43:43;8.50;98.40
6654;DHT22;3363;50.942;7.034;2023-02-02T15:46:11;8.50;98.60
6654;DHT22;3363;50.942;7.034;2023-02-02T15:48:39;8.60;97.60
6654;DHT22;3363;50.942;7.034;2023-02-02T15:51:13;8.50;98.10
6654;DHT22;3363;50.942;7.034;2023-02-02T15:53:44;8.60;96.90
6654;DHT22;3363;50.942;7.034;2023-02-02T15:56:24;8.60;97.30
6654;DHT22;3363;50.942;7.034;2023-02-02T15:58:54;8.50;97.60
6654;DHT22;3363;50.942;7.034;2023-02-02T16:01:22;8.40;98.10
6654;DHT22;3363;50.942;7.034;2023-02-02T16:03:50;8.40;98.70
6654;DHT22;3363;50.942;7.034;2023-02-02T16:06:17;8.50;98.20
6654;DHT22;3363;50.942;7.034;2023-02-02T16:08:44;8.50;97.70
6654;DHT22;3363;50.942;7.034;2023-02-02T16:11:12;8.50;97.40
6654;DHT22;3363;50.942;7.034;2023-02-02T16:13:41;8.60;96.60
6654;DHT22;3363;50.942;7.034;2023-02-02T16:16:22;8.60;96.60
6654;DHT22;3363;50.942;7.034;2023-02-02T16:19:11;8.50;96.90
6654;DHT22;3363;50.942;7.034;2023-02-02T16:21:40;8.50;96.90
6654;DHT22;3363;50.942;7.034;2023-02-02T16:24:10;8.50;96.50
6654;DHT22;3363;50.942;7.034;2023-02-02T16:26:37;8.60;96.90
6654;DHT22;3363;50.942;7.034;2023-02-02T16:29:07;8.50;96.30
6654;DHT22;3363;50.942;7.034;2023-02-02T16:31:35;8.50;96.60
6654;DHT22;3363;50.942;7.034;2023-02-02T16:34:01;8.60;95.40
6654;DHT22;3363;50.942;7.034;2023-02-02T16:36:29;8.60;95.50
6654;DHT22;3363;50.942;7.034;2023-02-02T16:38:56;8.60;95.00
6654;DHT22;3363;50.942;7.034;2023-02-02T16:41:28;8.60;94.60
6654;DHT22;3363;50.942;7.034;2023-02-02T16:44:00;8.50;95.50
6654;DHT22;3363;50.942;7.034;2023-02-02T16:46:48;8.60;95.00
6654;DHT22;3363;50.942;7.034;2023-02-02T16:49:15;8.50;95.00
6654;DHT22;3363;50.942;7.034;2023-02-02T16:51:44;8.50;95.00
6654;DHT22;3363;50.942;7.034;2023-02-02T16:54:12;8.50;95.20